Time;durP1;ratioP1;P1;durP2;ratioP2;P2;SDS_P1;SDS_P2;PMS_P1;PMS_P2;Temp;Humidity;BMP_temperature;BMP_pressure;BME280_temperature;BME280_humidity;BME280_pressure;Samples;Min_cycle;Max_cycle;Signal;HPM_P1;HPM_P2
2023/08/24 00:00:50;;;;;;;6.63;3.50;;;18.50;99.90;;;;;;5038837;28;20048;-74
2023/08/24 00:03:16;;;;;;;6.90;3.50;;;18.40;99.90;;;;;;5053829;28;20041;-74
2023/08/24 00:05:43;;;;;;;6.93;3.60;;;18.40;99.90;;;;;;5064578;28;20099;-74
2023/08/24 00:08:10;;;;;;;6.45;3.55;;;18.30;99.90;;;;;;5039471;28;20053;-72
2023/08/24 00:10:37;;;;;;;5.65;3.72;;;18.30;99.90;;;;;;5036547;28;20051;-74
2023/08/24 00:13:03;;;;;;;6.68;3.55;;;18.30;99.90;;;;;;5050725;28;20045;-74
2023/08/24 00:15:30;;;;;;;6.25;3.40;;;18.30;99.90;;;;;;5049525;28;20116;-74
2023/08/24 00:17:56;;;;;;;5.90;3.85;;;18.20;99.90;;;;;;5041650;28;20041;-74
2023/08/24 00:20:22;;;;;;;5.20;3.78;;;18.10;99.90;;;;;;5047094;28;20029;-74
2023/08/24 00:22:48;;;;;;;5.88;4.20;;;18.10;99.90;;;;;;5047103;28;20099;-74
2023/08/24 00:25:14;;;;;;;5.70;3.90;;;18.00;99.90;;;;;;5039015;28;20037;-74
2023/08/24 00:27:40;;;;;;;5.72;4.20;;;18.00;99.90;;;;;;5047784;28;20032;-74
2023/08/24 00:30:07;;;;;;;6.00;4.68;;;18.00;99.90;;;;;;5042584;28;20045;-74
2023/08/24 00:32:34;;;;;;;4.07;3.50;;;18.00;99.90;;;;;;5048879;28;20120;-74
2023/08/24 00:35:05;;;;;;;6.75;3.97;;;18.00;99.90;;;;;;5044713;28;20059;-74
2023/08/24 00:37:31;;;;;;;6.28;4.78;;;18.00;99.90;;;;;;5039816;28;20075;-74
2023/08/24 00:40:01;;;;;;;8.20;5.22;;;17.90;99.90;;;;;;5046980;28;20041;-74
2023/08/24 00:42:27;;;;;;;7.38;4.97;;;18.00;99.90;;;;;;5043914;28;20037;-74
2023/08/24 00:44:52;;;;;;;6.25;5.00;;;17.90;99.90;;;;;;5042931;28;20046;-74
2023/08/24 00:47:18;;;;;;;7.90;5.45;;;18.00;99.90;;;;;;5063508;28;20143;-74
2023/08/24 00:49:44;;;;;;;9.13;5.50;;;18.00;99.90;;;;;;5047067;28;20040;-74
2023/08/24 00:52:10;;;;;;;8.60;5.10;;;18.00;99.90;;;;;;5041031;28;21895;-74
2023/08/24 00:54:39;;;;;;;8.52;5.63;;;18.00;99.90;;;;;;5046850;28;20083;-74
2023/08/24 00:57:05;;;;;;;8.30;5.43;;;18.00;99.90;;;;;;5045620;28;20100;-74
2023/08/24 00:59:32;;;;;;;7.43;5.47;;;18.00;99.90;;;;;;5050134;28;20045;-74
2023/08/24 01:01:59;;;;;;;8.35;5.57;;;18.00;99.90;;;;;;5037940;28;20067;-74
2023/08/24 01:04:25;;;;;;;7.43;5.72;;;18.00;99.90;;;;;;5039629;28;20064;-74
2023/08/24 01:06:52;;;;;;;7.50;5.10;;;17.90;99.90;;;;;;5041282;28;20041;-74
2023/08/24 01:09:19;;;;;;;7.72;5.20;;;17.80;99.90;;;;;;5029508;28;20044;-74
2023/08/24 01:12:06;;;;;;;9.10;5.55;;;17.80;99.90;;;;;;5035685;28;20052;-74
2023/08/24 01:14:58;;;;;;;8.65;5.40;;;17.80;99.90;;;;;;5035051;28;20142;-74
2023/08/24 01:17:29;;;;;;;9.10;5.50;;;17.80;99.90;;;;;;5031476;28;20049;-74
2023/08/24 01:19:56;;;;;;;9.13;5.57;;;17.80;99.90;;;;;;5040501;28;20043;-74
2023/08/24 01:22:27;;;;;;;8.40;5.85;;;17.80;99.90;;;;;;5041699;28;20053;-74
2023/08/24 01:25:14;;;;;;;9.80;6.72;;;17.80;99.90;;;;;;5036894;28;20037;-74
2023/08/24 01:27:40;;;;;;;;;;;17.90;99.90;;;;;;5036936;28;20143;-74
2023/08/24 01:30:07;;;;;;;10.65;7.22;;;17.90;99.90;;;;;;5046498;28;19925;-74
2023/08/24 01:32:34;;;;;;;9.40;7.20;;;17.90;99.90;;;;;;5053859;28;20107;-74
2023/08/24 01:35:05;;;;;;;;;;;17.90;99.90;;;;;;5040699;28;20067;-74
2023/08/24 01:37:32;;;;;;;9.85;7.15;;;18.00;99.90;;;;;;5059478;28;19979;-74
2023/08/24 01:40:08;;;;;;;9.88;6.97;;;17.90;99.90;;;;;;5041157;28;23302;-74
2023/08/24 01:42:37;;;;;;;10.05;7.80;;;18.00;99.90;;;;;;5036361;28;20053;-74
2023/08/24 01:45:07;;;;;;;9.07;7.68;;;18.00;99.90;;;;;;5043628;28;20080;-74
2023/08/24 01:47:35;;;;;;;9.05;7.20;;;18.00;99.90;;;;;;5025878;28;20051;-74
2023/08/24 01:50:01;;;;;;;;;;;18.00;99.90;;;;;;5047483;28;20049;-74
2023/08/24 01:52:27;;;;;;;9.68;7.95;;;18.00;99.90;;;;;;5044704;28;19916;-74
2023/08/24 01:54:53;;;;;;;9.07;7.70;;;18.00;99.90;;;;;;5038761;28;20036;-74
2023/08/24 01:57:19;;;;;;;10.25;7.93;;;18.10;99.90;;;;;;5042918;28;20045;-74
2023/08/24 01:59:45;;;;;;;10.45;8.07;;;18.10;99.90;;;;;;5042345;28;20048;-74
2023/08/24 02:02:10;;;;;;;10.52;7.70;;;18.10;99.90;;;;;;5040439;28;20037;-74
2023/08/24 02:04:36;;;;;;;9.48;7.32;;;18.10;99.90;;;;;;5044137;28;20051;-74
2023/08/24 02:07:01;;;;;;;9.00;8.05;;;18.10;99.90;;;;;;5037949;28;20133;-74
2023/08/24 02:09:27;;;;;;;9.32;8.23;;;18.10;99.90;;;;;;5043409;28;20045;-74
2023/08/24 02:11:53;;;;;;;11.02;7.47;;;18.10;99.90;;;;;;5034335;28;20041;-74
2023/08/24 02:14:18;;;;;;;9.93;7.82;;;18.10;99.90;;;;;;5035748;28;20542;-74
2023/08/24 02:16:44;;;;;;;10.77;8.48;;;18.10;99.90;;;;;;5043302;28;20558;-73
2023/08/24 02:19:10;;;;;;;9.50;8.30;;;18.10;99.90;;;;;;5035392;28;20046;-74
2023/08/24 02:21:36;;;;;;;9.18;7.88;;;18.10;99.90;;;;;;5038446;28;20045;-74
2023/08/24 02:24:03;;;;;;;11.10;9.03;;;18.10;99.90;;;;;;5040424;28;20049;-74
2023/08/24 02:26:29;;;;;;;9.23;8.23;;;18.10;99.90;;;;;;5035733;28;20397;-74
2023/08/24 02:28:54;;;;;;;8.88;7.70;;;18.10;99.90;;;;;;5047479;28;20530;-74
2023/08/24 02:31:20;;;;;;;11.15;9.05;;;18.10;99.90;;;;;;5045597;28;20048;-74
2023/08/24 02:33:46;;;;;;;8.95;8.05;;;18.10;99.90;;;;;;5039238;28;20094;-74
2023/08/24 02:36:11;;;;;;;10.05;8.45;;;18.10;99.90;;;;;;5038202;28;20044;-74
2023/08/24 02:38:37;;;;;;;11.80;8.98;;;18.10;99.90;;;;;;5034728;28;20678;-74
2023/08/24 02:41:07;;;;;;;9.68;8.18;;;18.10;99.90;;;;;;5044896;28;20175;-74
2023/08/24 02:43:35;;;;;;;9.65;8.60;;;18.10;99.90;;;;;;5041020;28;20068;-74
2023/08/24 02:46:07;;;;;;;10.65;8.23;;;18.10;99.90;;;;;;5035903;28;20038;-74
2023/08/24 02:48:34;;;;;;;10.38;8.30;;;18.10;99.90;;;;;;5045057;28;20093;-74
2023/08/24 02:51:01;;;;;;;11.90;8.40;;;18.10;99.90;;;;;;5045572;28;20045;-74
2023/08/24 02:53:27;;;;;;;9.50;8.52;;;18.00;99.90;;;;;;5036530;28;20052;-74
2023/08/24 02:55:54;;;;;;;9.50;8.57;;;18.10;99.90;;;;;;5046795;28;20041;-74
2023/08/24 02:58:20;;;;;;;10.55;9.55;;;18.10;99.90;;;;;;5052635;28;20112;-74
2023/08/24 03:00:46;;;;;;;10.20;9.13;;;18.00;99.90;;;;;;5063921;28;20037;-74
2023/08/24 03:03:14;;;;;;;11.23;9.30;;;18.10;99.90;;;;;;5056683;28;20075;-74
2023/08/24 03:05:40;;;;;;;10.32;9.25;;;18.00;99.90;;;;;;5047849;28;20056;-74
2023/08/24 03:08:06;;;;;;;11.35;9.25;;;18.00;99.90;;;;;;5048330;28;20087;-74
2023/08/24 03:10:35;;;;;;;11.40;9.20;;;18.00;99.90;;;;;;5044215;28;20080;-74
2023/08/24 03:13:01;;;;;;;10.68;8.80;;;18.00;99.90;;;;;;5063051;28;20060;-74
2023/08/24 03:15:26;;;;;;;9.88;8.50;;;18.00;99.90;;;;;;5046603;28;20076;-74
2023/08/24 03:17:52;;;;;;;10.27;8.50;;;18.00;99.90;;;;;;5046149;28;20047;-73
2023/08/24 03:20:19;;;;;;;11.68;9.38;;;18.00;99.90;;;;;;5046440;28;20033;-74
2023/08/24 03:22:44;;;;;;;10.63;9.02;;;18.00;99.90;;;;;;5043729;28;20076;-74
2023/08/24 03:25:10;;;;;;;10.13;9.00;;;18.00;99.90;;;;;;5037229;28;20134;-74
2023/08/24 03:27:37;;;;;;;11.85;9.77;;;18.00;99.90;;;;;;5046760;28;20449;-74
2023/08/24 03:30:04;;;;;;;;;;;18.00;99.90;;;;;;5041460;28;20556;-74
2023/08/24 03:32:30;;;;;;;10.77;9.68;;;18.00;99.90;;;;;;5032741;28;19960;-74
2023/08/24 03:34:59;;;;;;;10.30;8.73;;;17.90;99.90;;;;;;5043473;28;20099;-74
2023/08/24 03:37:25;;;;;;;11.88;9.32;;;18.00;99.90;;;;;;5045782;28;20045;-74
2023/08/24 03:39:51;;;;;;;9.73;8.65;;;17.90;99.90;;;;;;5039729;28;20546;-74
2023/08/24 03:42:16;;;;;;;11.48;8.55;;;17.90;99.90;;;;;;5043072;28;20188;-74
2023/08/24 03:44:42;;;;;;;10.10;9.02;;;17.90;99.90;;;;;;5047841;28;20111;-74
2023/08/24 03:47:08;;;;;;;9.25;8.30;;;17.90;99.90;;;;;;5044607;28;20068;-74
2023/08/24 03:49:34;;;;;;;11.27;8.98;;;17.90;99.90;;;;;;5043181;28;20037;-74
2023/08/24 03:52:00;;;;;;;9.35;8.40;;;17.90;99.90;;;;;;5043038;28;20045;-74
2023/08/24 03:54:26;;;;;;;13.02;8.88;;;17.90;99.90;;;;;;5040256;28;20103;-74
2023/08/24 03:56:51;;;;;;;9.95;8.23;;;17.90;99.90;;;;;;5046878;28;20052;-74
2023/08/24 03:59:17;;;;;;;11.48;8.70;;;17.90;99.90;;;;;;5037398;28;20084;-74
2023/08/24 04:01:43;;;;;;;9.77;8.48;;;17.80;99.90;;;;;;5034897;28;20056;-74
2023/08/24 04:04:08;;;;;;;10.68;8.35;;;17.80;99.90;;;;;;5045210;28;20056;-75
2023/08/24 04:06:34;;;;;;;10.38;8.18;;;17.80;99.90;;;;;;5056995;28;20065;-74
2023/08/24 04:08:59;;;;;;;10.23;7.88;;;17.80;99.90;;;;;;5042340;28;20041;-74
2023/08/24 04:11:25;;;;;;;9.35;7.93;;;17.80;99.90;;;;;;5048118;28;20052;-73
2023/08/24 04:13:51;;;;;;;12.00;8.30;;;17.80;99.90;;;;;;5048017;28;20067;-74
2023/08/24 04:16:16;;;;;;;10.18;7.95;;;17.80;99.90;;;;;;5048627;28;20106;-74
2023/08/24 04:18:42;;;;;;;9.95;7.82;;;17.80;99.90;;;;;;5044849;28;20514;-74
2023/08/24 04:21:08;;;;;;;14.05;8.27;;;17.70;99.90;;;;;;5049284;28;20060;-75
2023/08/24 04:23:33;;;;;;;9.48;8.55;;;17.70;99.90;;;;;;5040878;28;20041;-75
2023/08/24 04:25:59;;;;;;;12.23;7.78;;;17.60;99.90;;;;;;5043873;28;20190;-74
2023/08/24 04:28:25;;;;;;;10.27;7.30;;;17.60;99.90;;;;;;5044226;28;20064;-75
2023/08/24 04:30:57;;;;;;;10.75;7.45;;;17.60;99.90;;;;;;5050027;28;20045;-74
2023/08/24 04:33:23;;;;;;;9.65;8.10;;;17.60;99.90;;;;;;5043204;28;20063;-75
2023/08/24 04:35:50;;;;;;;10.07;7.80;;;17.60;99.90;;;;;;5046178;28;20055;-75
2023/08/24 04:38:16;;;;;;;10.75;7.47;;;17.60;99.90;;;;;;5040237;28;20458;-75
2023/08/24 04:40:52;;;;;;;8.50;7.45;;;17.60;99.90;;;;;;5047940;28;20421;-74
2023/08/24 04:43:19;;;;;;;11.70;8.02;;;17.50;99.90;;;;;;5036140;28;20594;-74
2023/08/24 04:45:52;;;;;;;10.50;8.00;;;17.50;99.90;;;;;;5041104;28;20091;-74
2023/08/24 04:48:19;;;;;;;11.20;8.35;;;17.50;99.90;;;;;;5040296;28;20040;-74
2023/08/24 04:50:45;;;;;;;8.88;7.97;;;17.50;99.90;;;;;;5047834;28;20610;-74
2023/08/24 04:53:16;;;;;;;9.97;7.90;;;17.50;99.90;;;;;;5045161;28;20488;-74
2023/08/24 04:55:42;;;;;;;11.32;8.85;;;17.40;99.90;;;;;;5048684;28;20295;-74
2023/08/24 04:58:08;;;;;;;10.13;8.38;;;17.40;99.90;;;;;;5035593;28;20063;-74
2023/08/24 05:00:34;;;;;;;9.10;7.93;;;17.40;99.90;;;;;;5042164;28;21824;-74
2023/08/24 05:03:04;;;;;;;10.25;7.97;;;17.40;99.90;;;;;;5040818;28;20045;-74
2023/08/24 05:05:31;;;;;;;10.05;8.00;;;17.40;99.90;;;;;;5046110;28;20060;-74
2023/08/24 05:07:57;;;;;;;8.75;7.50;;;17.40;99.90;;;;;;5051455;28;20407;-74
2023/08/24 05:10:24;;;;;;;10.77;8.00;;;17.40;99.90;;;;;;5039051;28;20041;-74
2023/08/24 05:12:49;;;;;;;9.50;7.85;;;17.40;99.90;;;;;;5049857;28;20041;-74
2023/08/24 05:15:15;;;;;;;12.40;7.80;;;17.40;99.90;;;;;;5050184;28;20233;-74
2023/08/24 05:17:41;;;;;;;9.70;6.93;;;17.40;99.90;;;;;;5048983;28;20459;-74
2023/08/24 05:20:08;;;;;;;9.18;7.13;;;17.40;99.90;;;;;;5041593;28;20110;-74
2023/08/24 05:22:34;;;;;;;9.32;7.60;;;17.50;99.90;;;;;;5045326;28;20124;-74
2023/08/24 05:25:00;;;;;;;14.43;9.13;;;17.50;99.90;;;;;;5043600;28;20077;-74
2023/08/24 05:27:26;;;;;;;14.13;9.43;;;17.50;99.90;;;;;;5043043;28;20358;-74
2023/08/24 05:29:52;;;;;;;9.52;7.45;;;17.60;99.90;;;;;;5042465;28;20671;-74
2023/08/24 05:32:18;;;;;;;10.30;6.90;;;17.60;99.90;;;;;;5032754;28;20125;-74
2023/08/24 05:34:45;;;;;;;8.63;6.55;;;17.60;99.90;;;;;;5043919;28;20095;-75
2023/08/24 05:37:11;;;;;;;10.32;6.68;;;17.70;99.90;;;;;;5044704;28;20045;-74
2023/08/24 05:39:37;;;;;;;11.05;7.10;;;17.80;99.90;;;;;;5028370;28;20033;-74
2023/08/24 05:42:03;;;;;;;9.82;7.00;;;17.80;99.90;;;;;;5036000;28;20483;-73
2023/08/24 05:44:29;;;;;;;10.00;6.70;;;17.90;99.90;;;;;;5034944;28;20049;-73
2023/08/24 05:46:55;;;;;;;9.23;6.95;;;17.90;99.90;;;;;;5037976;28;20349;-74
2023/08/24 05:49:21;;;;;;;10.60;6.90;;;18.00;99.90;;;;;;5038924;28;20118;-73
2023/08/24 05:51:49;;;;;;;9.80;7.03;;;18.00;99.90;;;;;;5052440;28;20139;-73
2023/08/24 05:54:18;;;;;;;11.98;7.45;;;18.10;99.90;;;;;;5045740;28;20048;-73
2023/08/24 05:56:47;;;;;;;10.68;8.45;;;18.10;99.90;;;;;;5038983;28;20167;-73
2023/08/24 05:59:14;;;;;;;10.45;8.35;;;18.20;99.90;;;;;;5037660;28;20399;-75
2023/08/24 06:01:41;;;;;;;10.02;8.15;;;18.20;99.90;;;;;;5042304;28;20040;-74
2023/08/24 06:04:08;;;;;;;12.20;9.52;;;18.30;99.90;;;;;;5039944;28;20052;-75
2023/08/24 06:06:34;;;;;;;;;;;18.30;99.90;;;;;;5057637;28;20488;-75
2023/08/24 06:09:00;;;;;;;11.87;9.70;;;18.30;99.90;;;;;;5037660;28;19936;-74
2023/08/24 06:11:26;;;;;;;13.18;10.00;;;18.30;99.90;;;;;;5040260;28;20072;-73
2023/08/24 06:13:54;;;;;;;13.43;9.95;;;18.40;99.90;;;;;;5047043;28;20110;-73
2023/08/24 06:16:20;;;;;;;12.70;10.38;;;18.50;99.90;;;;;;5038872;28;20049;-73
2023/08/24 06:18:46;;;;;;;13.90;11.07;;;18.50;99.90;;;;;;5014040;28;20108;-74
2023/08/24 06:21:12;;;;;;;13.45;10.85;;;18.50;99.90;;;;;;5027437;28;20135;-73
2023/08/24 06:23:38;;;;;;;15.82;11.55;;;18.60;99.90;;;;;;5045298;28;20071;-72
2023/08/24 06:26:04;;;;;;;14.30;11.13;;;18.70;99.90;;;;;;5047428;28;20106;-74
2023/08/24 06:28:31;;;;;;;14.60;11.98;;;18.70;99.90;;;;;;5054268;28;20166;-73
2023/08/24 06:30:57;;;;;;;12.52;11.32;;;18.80;99.90;;;;;;5046589;28;20116;-73
2023/08/24 06:33:31;;;;;;;15.95;11.80;;;18.90;99.90;;;;;;5045379;28;20044;-75
2023/08/24 06:35:57;;;;;;;13.35;12.05;;;18.90;99.90;;;;;;5040416;28;20041;-75
2023/08/24 06:38:23;;;;;;;15.65;11.98;;;19.00;99.90;;;;;;5040194;28;20037;-74
2023/08/24 06:40:49;;;;;;;14.07;11.57;;;19.10;99.90;;;;;;5042397;28;20059;-76
2023/08/24 06:43:14;;;;;;;14.55;11.95;;;19.10;99.90;;;;;;5059897;28;20060;-72
2023/08/24 06:45:41;;;;;;;15.43;13.23;;;19.20;99.90;;;;;;5044393;28;20662;-77
2023/08/24 06:48:07;;;;;;;16.57;12.13;;;19.20;99.90;;;;;;5043485;28;20122;-73
2023/08/24 06:50:33;;;;;;;14.75;13.18;;;19.30;99.90;;;;;;5049672;28;20477;-78
2023/08/24 06:52:59;;;;;;;15.80;14.20;;;19.30;99.90;;;;;;5043163;28;20045;-75
2023/08/24 06:55:27;;;;;;;15.90;12.48;;;19.40;99.90;;;;;;5048963;28;20056;-76
2023/08/24 06:57:52;;;;;;;16.17;13.15;;;19.40;99.90;;;;;;5047223;28;20033;-76
2023/08/24 07:00:19;;;;;;;17.55;14.07;;;19.50;99.90;;;;;;5042365;28;20107;-76
2023/08/24 07:02:49;;;;;;;15.70;13.95;;;19.50;99.90;;;;;;5035222;28;20103;-78
2023/08/24 07:05:18;;;;;;;18.80;14.30;;;19.60;99.90;;;;;;5033932;28;20049;-79
2023/08/24 07:07:49;;;;;;;15.35;13.70;;;19.70;99.90;;;;;;5035235;28;20128;-75
2023/08/24 07:10:14;;;;;;;15.57;12.63;;;19.80;99.90;;;;;;5045482;28;20045;-74
2023/08/24 07:12:40;;;;;;;20.33;14.20;;;19.80;99.90;;;;;;5037268;28;20041;-74
2023/08/24 07:15:08;;;;;;;16.30;13.18;;;19.90;99.90;;;;;;5040549;28;20045;-76
2023/08/24 07:17:33;;;;;;;;;;;19.90;99.90;;;;;;5044935;28;20045;-75
2023/08/24 07:19:59;;;;;;;14.50;12.97;;;20.00;99.90;;;;;;5049596;28;20368;-75
2023/08/24 07:22:28;;;;;;;14.10;12.70;;;20.00;99.90;;;;;;5043842;28;20073;-74
2023/08/24 07:24:54;;;;;;;16.70;13.73;;;20.10;99.90;;;;;;5042554;28;20083;-75
2023/08/24 07:27:20;;;;;;;14.65;12.20;;;20.20;99.90;;;;;;5039744;28;20103;-76
2023/08/24 07:29:46;;;;;;;14.48;12.98;;;20.20;99.90;;;;;;5039576;28;20041;-75
2023/08/24 07:32:12;;;;;;;18.02;13.27;;;20.30;99.90;;;;;;5037285;28;20455;-78
2023/08/24 07:34:38;;;;;;;14.77;13.23;;;20.40;99.90;;;;;;5036648;28;20397;-82
2023/08/24 07:37:04;;;;;;;17.67;13.55;;;20.40;99.90;;;;;;5041857;28;20044;-80
2023/08/24 07:39:29;;;;;;;13.77;12.13;;;20.50;99.90;;;;;;5042184;28;20073;-82
2023/08/24 07:41:55;;;;;;;17.58;13.13;;;20.50;99.90;;;;;;5042161;28;20074;-83
2023/08/24 07:44:21;;;;;;;16.90;13.52;;;20.50;99.90;;;;;;5039995;28;20046;-80
2023/08/24 07:46:48;;;;;;;15.80;13.80;;;20.60;99.90;;;;;;5042169;28;20442;-75
2023/08/24 07:49:13;;;;;;;15.13;12.65;;;20.70;99.90;;;;;;5036495;28;20051;-77
2023/08/24 07:51:39;;;;;;;16.25;12.10;;;20.70;99.90;;;;;;5038360;28;20053;-82
2023/08/24 07:54:06;;;;;;;16.50;12.20;;;20.70;99.90;;;;;;5042770;28;20137;-77
2023/08/24 07:56:32;;;;;;;;;;;20.90;99.90;;;;;;5048069;28;20387;-77
2023/08/24 07:58:58;;;;;;;16.27;11.60;;;20.90;99.90;;;;;;5036432;28;19921;-77
2023/08/24 08:01:24;;;;;;;13.70;11.68;;;21.00;99.90;;;;;;5043704;28;20373;-76
2023/08/24 08:03:50;;;;;;;13.68;11.05;;;21.00;99.90;;;;;;5044718;28;20057;-76
2023/08/24 08:06:16;;;;;;;12.68;11.38;;;21.10;99.90;;;;;;5043640;28;20500;-75
2023/08/24 08:08:42;;;;;;;12.27;10.13;;;21.20;99.90;;;;;;5045640;28;20488;-77
2023/08/24 08:11:07;;;;;;;13.10;10.32;;;21.30;99.90;;;;;;5047728;28;20049;-75
2023/08/24 08:13:33;;;;;;;12.02;10.70;;;21.40;99.90;;;;;;5041136;28;20380;-77
2023/08/24 08:16:06;;;;;;;13.38;10.32;;;21.50;99.90;;;;;;5047033;28;20044;-77
2023/08/24 08:18:33;;;;;;;14.05;9.88;;;21.60;99.90;;;;;;5039149;28;20033;-77
2023/08/24 08:20:59;;;;;;;;;;;21.60;99.90;;;;;;5039801;28;20045;-77
2023/08/24 08:23:25;;;;;;;10.50;9.00;;;21.70;99.90;;;;;;5042951;28;21597;-79
2023/08/24 08:25:51;;;;;;;12.60;9.73;;;21.80;99.90;;;;;;5053434;28;20074;-77
2023/08/24 08:28:17;;;;;;;11.85;8.40;;;21.80;99.90;;;;;;5042379;28;20052;-76
2023/08/24 08:30:44;;;;;;;10.63;8.85;;;21.90;99.90;;;;;;5036989;28;20055;-76
2023/08/24 08:33:10;;;;;;;12.13;9.63;;;22.00;99.90;;;;;;5037957;28;20053;-77
2023/08/24 08:35:37;;;;;;;11.65;10.18;;;22.10;99.90;;;;;;5039879;28;20045;-77
2023/08/24 08:38:07;;;;;;;12.15;9.27;;;22.10;99.90;;;;;;5043225;28;20049;-77
2023/08/24 08:40:37;;;;;;;10.55;9.25;;;22.20;99.90;;;;;;5037308;28;20049;-76
2023/08/24 08:43:03;;;;;;;10.55;9.00;;;22.30;99.90;;;;;;5041682;28;20041;-78
2023/08/24 08:45:29;;;;;;;12.55;9.45;;;22.30;99.90;;;;;;5042583;28;20777;-78
2023/08/24 08:48:02;;;;;;;12.07;8.95;;;22.40;99.90;;;;;;5050564;28;20392;-83
2023/08/24 08:50:31;;;;;;;12.13;9.90;;;22.40;99.90;;;;;;5052523;28;20068;-80
2023/08/24 08:52:58;;;;;;;11.88;9.15;;;22.50;99.90;;;;;;5064298;28;20049;-84
2023/08/24 08:55:25;;;;;;;12.88;9.10;;;22.60;99.90;;;;;;5049208;28;20049;-80
2023/08/24 08:57:57;;;;;;;12.70;8.13;;;22.70;99.90;;;;;;5056476;28;20159;-79
2023/08/24 09:00:24;;;;;;;13.30;8.95;;;22.90;99.90;;;;;;5045339;28;20045;-82
2023/08/24 09:02:52;;;;;;;12.30;7.60;;;22.90;99.90;;;;;;5047130;28;20044;-76
2023/08/24 09:05:20;;;;;;;12.20;7.60;;;23.00;99.90;;;;;;5037880;28;20052;-73
2023/08/24 09:07:47;;;;;;;;;;;23.10;99.90;;;;;;5046374;28;20144;-73
2023/08/24 09:10:13;;;;;;;10.65;7.25;;;23.20;99.90;;;;;;5048559;28;20475;-73
2023/08/24 09:12:39;;;;;;;11.83;8.23;;;23.30;99.90;;;;;;5049073;28;20039;-73
2023/08/24 09:15:06;;;;;;;10.65;8.05;;;23.40;99.90;;;;;;5051066;28;20041;-73
2023/08/24 09:17:33;;;;;;;11.05;8.55;;;23.50;99.90;;;;;;5046627;28;20068;-73
2023/08/24 09:20:00;;;;;;;;;;;23.60;99.90;;;;;;5049230;28;20596;-72
2023/08/24 09:22:26;;;;;;;10.82;7.50;;;23.70;99.90;;;;;;5044216;28;20279;-73
2023/08/24 09:24:54;;;;;;;10.20;7.45;;;23.70;99.90;;;;;;5039623;28;20045;-78
2023/08/24 09:27:21;;;;;;;11.13;7.90;;;23.80;99.90;;;;;;5034305;28;20057;-75
2023/08/24 09:29:51;;;;;;;9.48;7.57;;;23.90;99.90;;;;;;5034008;28;20094;-77
2023/08/24 09:32:26;;;;;;;10.48;7.95;;;24.00;99.90;;;;;;5048255;28;20041;-76
2023/08/24 09:34:52;;;;;;;12.85;8.10;;;24.10;99.90;;;;;;5041198;28;20046;-76
2023/08/24 09:37:19;;;;;;;13.13;8.77;;;24.10;99.90;;;;;;5048228;28;20033;-78
2023/08/24 09:39:45;;;;;;;;;;;24.20;99.90;;;;;;5049237;28;20064;-76
2023/08/24 09:42:12;;;;;;;10.43;7.43;;;24.30;99.90;;;;;;5050058;28;20376;-74
2023/08/24 09:44:37;;;;;;;9.43;7.55;;;24.40;99.90;;;;;;5049202;28;20037;-74
2023/08/24 09:47:10;;;;;;;11.85;8.32;;;24.50;99.90;;;;;;5061935;28;20514;-75
2023/08/24 09:49:36;;;;;;;11.77;7.60;;;24.60;99.90;;;;;;5049305;28;20040;-76
2023/08/24 09:52:06;;;;;;;11.05;8.30;;;24.80;99.90;;;;;;5046303;28;20047;-75
2023/08/24 09:54:35;;;;;;;13.88;8.60;;;24.90;99.90;;;;;;5049518;28;20463;-75
2023/08/24 09:57:02;;;;;;;11.07;9.10;;;24.90;99.90;;;;;;5058568;28;20083;-76
2023/08/24 09:59:31;;;;;;;11.48;8.98;;;25.00;99.90;;;;;;5043478;28;20475;-74
2023/08/24 10:01:57;;;;;;;12.95;8.60;;;25.00;99.90;;;;;;5044989;28;20510;-74
2023/08/24 10:04:24;;;;;;;11.50;8.83;;;25.00;99.90;;;;;;5049175;28;20053;-75
2023/08/24 10:07:15;;;;;;;11.40;8.77;;;25.00;99.90;;;;;;5065415;28;20051;-77
2023/08/24 10:09:53;;;;;;;10.50;7.75;;;25.10;99.90;;;;;;5034211;28;20102;-76
2023/08/24 10:12:24;;;;;;;14.18;8.73;;;25.10;99.90;;;;;;5039877;28;20119;-75
2023/08/24 10:15:04;;;;;;;12.10;7.85;;;25.10;99.90;;;;;;5056893;28;20041;-76
2023/08/24 10:17:32;;;;;;;12.80;8.88;;;25.10;99.90;;;;;;5035917;28;20198;-75
2023/08/24 10:20:01;;;;;;;10.10;8.05;;;25.10;99.90;;;;;;5041929;28;20038;-74
2023/08/24 10:22:28;;;;;;;11.02;7.32;;;25.10;99.90;;;;;;5062879;28;20053;-76
2023/08/24 10:24:55;;;;;;;12.02;7.82;;;25.10;99.90;;;;;;5045434;28;20049;-75
2023/08/24 10:27:26;;;;;;;9.65;8.07;;;25.10;99.90;;;;;;5035149;28;20037;-75
2023/08/24 10:29:51;;;;;;;7.65;6.78;;;25.10;99.90;;;;;;5052331;28;20841;-76
2023/08/24 10:32:19;;;;;;;8.88;7.20;;;25.00;99.90;;;;;;5046409;28;20068;-77
2023/08/24 10:34:45;;;;;;;9.77;7.43;;;25.00;99.90;;;;;;5044163;28;20105;-76
2023/08/24 10:37:11;;;;;;;8.50;6.63;;;25.00;99.90;;;;;;5045502;28;20111;-74
2023/08/24 10:39:43;;;;;;;11.23;7.30;;;24.90;99.90;;;;;;5047191;28;20051;-75
2023/08/24 10:42:11;;;;;;;11.10;8.30;;;24.90;99.90;;;;;;5045483;28;20053;-77
2023/08/24 10:44:39;;;;;;;11.05;8.05;;;24.90;99.90;;;;;;5043199;28;20041;-75
2023/08/24 10:47:14;;;;;;;10.55;7.60;;;24.80;99.90;;;;;;5037673;28;20068;-76
2023/08/24 10:49:44;;;;;;;11.50;7.18;;;24.80;99.90;;;;;;5041417;28;20130;-76
2023/08/24 10:52:18;;;;;;;9.43;6.97;;;24.80;99.90;;;;;;5040063;28;20056;-75
2023/08/24 10:54:45;;;;;;;11.90;7.88;;;24.70;99.90;;;;;;5047497;28;20606;-75
2023/08/24 10:57:18;;;;;;;;;;;24.80;99.90;;;;;;5047309;28;20049;-76
2023/08/24 10:59:44;;;;;;;9.45;6.80;;;24.70;99.90;;;;;;5045307;28;19922;-76
2023/08/24 11:02:19;;;;;;;11.50;6.97;;;24.70;99.90;;;;;;5043010;28;20400;-75
2023/08/24 11:05:14;;;;;;;10.48;6.72;;;24.70;99.90;;;;;;5036925;28;20120;-75
2023/08/24 11:07:50;;;;;;;7.70;6.90;;;24.80;99.90;;;;;;5047721;28;20037;-74
2023/08/24 11:10:16;;;;;;;11.95;7.80;;;24.80;99.90;;;;;;5052217;28;20071;-76
2023/08/24 11:13:01;;;;;;;9.50;7.53;;;24.80;99.90;;;;;;5044786;28;20045;-76
2023/08/24 11:15:43;;;;;;;8.65;6.57;;;24.90;99.90;;;;;;5045352;28;20047;-76
2023/08/24 11:18:13;;;;;;;10.52;6.82;;;24.90;99.90;;;;;;5044632;28;20067;-76
2023/08/24 11:20:43;;;;;;;9.07;6.40;;;25.00;99.90;;;;;;5043381;28;20033;-76
2023/08/24 11:23:10;;;;;;;9.65;7.20;;;25.20;99.90;;;;;;5039086;28;20049;-76
2023/08/24 11:25:36;;;;;;;10.53;6.13;;;25.20;99.90;;;;;;5051478;28;20128;-76
2023/08/24 11:28:04;;;;;;;10.25;6.93;;;25.30;99.90;;;;;;5051184;28;20381;-76
2023/08/24 11:30:33;;;;;;;8.57;7.60;;;25.40;99.90;;;;;;5048253;28;20037;-76
2023/08/24 11:32:59;;;;;;;8.45;6.30;;;25.50;99.90;;;;;;5049197;28;20053;-76
2023/08/24 11:35:25;;;;;;;10.63;7.65;;;25.50;99.90;;;;;;5043812;28;20120;-76
2023/08/24 11:37:56;;;;;;;11.68;7.53;;;25.60;99.90;;;;;;5041159;28;20484;-76
2023/08/24 11:40:28;;;;;;;9.90;6.28;;;25.50;99.90;;;;;;5040437;28;20102;-77
2023/08/24 11:42:57;;;;;;;8.10;6.40;;;25.50;99.90;;;;;;5048355;28;20124;-75
2023/08/24 11:45:24;;;;;;;7.82;6.47;;;25.60;99.90;;;;;;5050516;28;20066;-74
2023/08/24 11:47:50;;;;;;;8.40;7.18;;;25.60;99.90;;;;;;5050335;28;20041;-74
2023/08/24 11:50:19;;;;;;;9.80;6.28;;;25.60;99.90;;;;;;5061396;28;20052;-74
2023/08/24 11:52:45;;;;;;;9.60;6.57;;;25.60;99.90;;;;;;5046978;28;20041;-74
2023/08/24 11:55:11;;;;;;;8.43;6.63;;;25.60;99.90;;;;;;5041466;28;20057;-74
2023/08/24 11:57:37;;;;;;;9.82;6.40;;;25.70;99.90;;;;;;5041105;28;20040;-74
2023/08/24 12:00:04;;;;;;;9.00;6.25;;;25.70;99.90;;;;;;5050374;28;20048;-76
2023/08/24 12:02:32;;;;;;;9.52;6.72;;;25.70;99.90;;;;;;5050933;28;20041;-76
2023/08/24 12:04:58;;;;;;;8.40;6.10;;;25.70;99.90;;;;;;5046675;28;20412;-75
2023/08/24 12:07:26;;;;;;;12.52;7.43;;;25.70;99.90;;;;;;5052155;28;20052;-75
2023/08/24 12:09:56;;;;;;;9.45;6.90;;;25.70;99.90;;;;;;5043326;28;20045;-76
2023/08/24 12:12:23;;;;;;;9.80;6.70;;;25.70;99.90;;;;;;5043368;28;20115;-76
2023/08/24 12:14:49;;;;;;;7.43;5.93;;;25.60;99.90;;;;;;5047340;28;20506;-75
2023/08/24 12:17:16;;;;;;;7.97;6.55;;;25.60;99.90;;;;;;5048797;28;20037;-75
2023/08/24 12:19:58;;;;;;;9.82;6.95;;;25.60;99.90;;;;;;5044976;28;20052;-75
2023/08/24 12:22:24;;;;;;;9.00;6.28;;;25.60;99.90;;;;;;5049494;28;20404;-75
2023/08/24 12:24:49;;;;;;;9.20;6.23;;;25.50;99.90;;;;;;5046327;28;20083;-76
2023/08/24 12:27:25;;;;;;;8.93;6.00;;;25.50;99.90;;;;;;5048599;28;20143;-75
2023/08/24 12:29:51;;;;;;;11.98;6.88;;;25.50;99.90;;;;;;5043046;28;20050;-75
2023/08/24 12:32:25;;;;;;;10.50;6.03;;;25.40;99.90;;;;;;5044038;28;20098;-74
2023/08/24 12:34:54;;;;;;;8.77;5.53;;;25.50;99.90;;;;;;5046921;28;20443;-77
2023/08/24 12:37:20;;;;;;;7.68;5.65;;;25.50;99.90;;;;;;5052398;28;20045;-77
2023/08/24 12:39:46;;;;;;;12.63;6.13;;;25.60;99.90;;;;;;5049567;28;20119;-78
2023/08/24 12:42:12;;;;;;;8.53;5.57;;;25.80;99.90;;;;;;5048012;28;20045;-78
2023/08/24 12:44:37;;;;;;;7.93;6.43;;;26.00;99.90;;;;;;5049800;28;20103;-76